Accueil
METAR-TAF:

METAR-TAF

Aéroports :

Fritzlar, Allemagne

latitude: 51-07N, longitude: 009-17E, altitude: 172 m

Observation

Le bulletin a été fait il y a 16 minutes, à 21:20 UTC
Vent 4 kt de ouest/nord-ouest
Température 1°C
Humidité 80%
Pression 1022 hPa
Visibilité 10 km ou plus
Quelques nuages à une hauteur de 7000 ft

METAR: ETHF 222120Z 30004KT 9999 FEW070 01/M02 Q1022 BLU+BLU+

Heure: 23:36 (21:36 UTC)

Prévision

Le bulletin a été fait il y a 2 heures et 20 minutes, à 19:16 UTC
Prévision valable du 22 à 20 UTC au 23 à 05 UTC
Vent 3 kt de direction variable
Visibilité 10 km ou plus
Quelques nuages à une hauteur de 5000 ft

TAF: ETHF 221916Z 2220/2305 VRB03KT 9999 NSW FEW050

Observations et prévisions météorologiques de plus de 4000 aéroports (messages METAR et TAF).

Les stations disponibles sont représentées par des disques jaunes et rouges sur la carte.

Passer la souris dessus pour voir le nom de la station.

Cliquer dessus pour voir les observations et prévisions météorologiques.

Pour changer de carte: cliquez sur les boutons verts avec une croix noire pour zoomer, sur le bouton vert avec un tiret pour effectuer un zoom arrière, ou sur les flèches vertes pour les cartes adjacentes.


METAR-TAF: